Forside
METAR-TAF:

METAR-TAF

Lufthavne :

Stauning Lufthavn

Ringkøbing-Skjern, Danmark

Breddekreds: 56-00N, længdekreds: 008-21E, højde: 5 m

Aktuelle vejr

Denne rapport blev lavet for 8 timer og 4 minutter siden, kl. 13:50 UTC
Vind 11 kt fra sydvest
Temperatur 10°C
Fugtighed 62%
Tryk 1013 hPa
Sigt 10 km eller mere
Nogle få skyer i en højde af 2500 ft
Brudte skyer i en højde af 25000 ft

METAR: EKVJ 081350Z 23011KT 9999 FEW025 BKN250 10/03 Q1013

Tid: 23:54 (21:54 UTC)

Vejrudsigter

Denne rapport blev lavet for 12 timer og 57 minutter siden, kl. 08:57 UTC
Foreløbig gælder fra 08 på 09 UTC til 08 på 14 UTC
Vind 10 kt fra vestsydvest
Sigt 10 km eller mere
Spredte skyer i en højde af 2500 ft
Midlertidig
fra 08 på 09 UTC til 08 på 14 UTC
Nogle få skyer i en højde af 2000 ft, Optårnet Cumulus.
ændring
fra 08 på 12 UTC til 08 på 14 UTC
Vind 10 kt fra syd

TAF: EKVJ 080857Z 0809/0814 24010KT 9999 SCT025 TEMPO 0809/0814 FEW020TCU BECMG 0812/0814 18010KT

Vejrobservationer og prognoser fra mere end 4000 lufthavne (METAR og TAF).

De gule og røde prikker repræsenterer de meteorologiske stationer.

Flyt musen over at se navnet på stationen.

Så klik over at se vejr observationer og prognoser.

At skifte det kort: Klik på de grønne knapper med et sort kors for at zoome ind; på den grønne knap med en bindestreg for at zoome ud; eller på de grønne pile for tilstødende kort.


METAR-TAF: